Time;durP1;ratioP1;P1;durP2;ratioP2;P2;SDS_P1;SDS_P2;PMS_P1;PMS_P2;Temp;Humidity;BMP_temperature;BMP_pressure;BME280_temperature;BME280_humidity;BME280_pressure;Samples;Min_cycle;Max_cycle;Signal;HPM_P1;HPM_P2
2024/01/27 00:00:54;;;;;;;12.97;2.67;;;;;;;;;;5033888;28;20281;-67
2024/01/27 00:03:22;;;;;;;11.90;2.47;;;;;;;;;;5033519;28;20805;-67
2024/01/27 00:05:48;;;;;;;12.03;3.13;;;;;;;;;;5033498;28;20485;-67
2024/01/27 00:08:15;;;;;;;7.80;2.37;;;;;;;;;;5033585;28;20940;-67
2024/01/27 00:10:45;;;;;;;11.70;3.83;;;;;;;;;;5033598;28;20535;-67
2024/01/27 00:13:12;;;;;;;12.47;2.50;;;;;;;;;;5033413;28;20536;-67
2024/01/27 00:15:39;;;;;;;11.30;2.80;;;;;;;;;;5033271;28;20456;-67
2024/01/27 00:18:06;;;;;;;12.63;2.73;;;;;;;;;;5033676;28;20445;-67
2024/01/27 00:20:33;;;;;;;9.37;2.80;;;;;;;;;;5033488;28;20892;-67
2024/01/27 00:23:00;;;;;;;8.57;2.70;;;;;;;;;;5033159;28;20937;-67
2024/01/27 00:25:27;;;;;;;14.20;2.77;;;;;;;;;;5033117;28;20489;-67
2024/01/27 00:27:56;;;;;;;12.10;2.90;;;;;;;;;;5033273;28;20540;-67
2024/01/27 00:30:23;;;;;;;17.30;3.00;;;;;;;;;;5033071;28;20453;-67
2024/01/27 00:32:49;;;;;;;7.60;2.10;;;;;;;;;;5033305;28;21018;-67
2024/01/27 00:35:16;;;;;;;10.73;2.50;;;;;;;;;;5033165;28;20449;-67
2024/01/27 00:37:43;;;;;;;9.35;2.60;;;;;;;;;;5033170;28;20445;-68
2024/01/27 00:40:11;;;;;;;10.30;2.55;;;;;;;;;;5033089;28;20277;-67
2024/01/27 00:42:38;;;;;;;13.10;2.77;;;;;;;;;;5032921;28;20623;-67
2024/01/27 00:45:07;;;;;;;12.88;2.47;;;;;;;;;;5032797;28;20560;-67
2024/01/27 00:47:34;;;;;;;14.02;3.22;;;;;;;;;;5033064;28;20232;-67
2024/01/27 00:50:01;;;;;;;20.83;3.17;;;;;;;;;;5032649;28;20647;-67
2024/01/27 00:52:28;;;;;;;9.80;2.05;;;;;;;;;;5032778;28;20515;-67
2024/01/27 00:54:55;;;;;;;19.67;3.20;;;;;;;;;;5032954;28;20194;-67
2024/01/27 00:57:22;;;;;;;9.97;2.23;;;;;;;;;;5032764;28;20198;-67
2024/01/27 00:59:49;;;;;;;6.75;1.73;;;;;;;;;;5032680;28;20452;-67
2024/01/27 01:02:17;;;;;;;7.93;2.80;;;;;;;;;;5032935;28;20190;-67
2024/01/27 01:04:44;;;;;;;18.48;2.80;;;;;;;;;;5032647;28;20546;-67
2024/01/27 01:07:11;;;;;;;9.27;2.42;;;;;;;;;;5032848;28;20233;-67
2024/01/27 01:09:38;;;;;;;9.70;3.22;;;;;;;;;;5032724;28;20252;-67
2024/01/27 01:12:06;;;;;;;14.57;2.73;;;;;;;;;;5032629;28;20552;-67
2024/01/27 01:14:32;;;;;;;12.83;2.40;;;;;;;;;;5032904;28;20451;-67
2024/01/27 01:16:59;;;;;;;8.57;2.73;;;;;;;;;;5032727;28;20461;-67
2024/01/27 01:19:27;;;;;;;12.65;2.38;;;;;;;;;;5032791;28;20452;-67
2024/01/27 01:21:54;;;;;;;16.55;3.25;;;;;;;;;;5032687;28;20710;-67
2024/01/27 01:24:21;;;;;;;13.87;3.60;;;;;;;;;;5032608;28;20701;-67
2024/01/27 01:26:48;;;;;;;13.82;2.40;;;;;;;;;;5032304;28;20520;-67
2024/01/27 01:29:15;;;;;;;11.70;2.97;;;;;;;;;;5032768;28;20191;-67
2024/01/27 01:31:43;;;;;;;11.52;2.53;;;;;;;;;;5032775;28;20273;-67
2024/01/27 01:34:10;;;;;;;12.95;2.30;;;;;;;;;;5032551;28;20194;-67
2024/01/27 01:36:38;;;;;;;9.83;2.27;;;;;;;;;;5032518;28;20198;-67
2024/01/27 01:39:05;;;;;;;14.65;2.50;;;;;;;;;;5032554;28;20457;-67
2024/01/27 01:41:32;;;;;;;8.23;2.72;;;;;;;;;;5032405;28;20281;-67
2024/01/27 01:43:59;;;;;;;14.35;2.90;;;;;;;;;;5032613;28;20614;-67
2024/01/27 01:46:26;;;;;;;16.58;2.65;;;;;;;;;;5032387;28;20280;-67
2024/01/27 01:48:53;;;;;;;13.73;3.28;;;;;;;;;;5032443;28;20713;-67
2024/01/27 01:51:21;;;;;;;7.73;2.70;;;;;;;;;;5032359;28;20289;-67
2024/01/27 01:53:50;;;;;;;11.18;2.58;;;;;;;;;;5032257;28;20536;-67
2024/01/27 01:56:17;;;;;;;13.33;3.60;;;;;;;;;;5032530;28;20191;-67
2024/01/27 01:58:44;;;;;;;12.87;2.80;;;;;;;;;;5032447;28;20445;-67
2024/01/27 02:01:11;;;;;;;20.60;3.80;;;;;;;;;;5032359;28;20540;-67
2024/01/27 02:03:38;;;;;;;14.48;3.17;;;;;;;;;;5034129;28;20717;-67
2024/01/27 02:06:05;;;;;;;13.63;2.72;;;;;;;;;;5035650;28;20210;-67
2024/01/27 02:08:32;;;;;;;15.68;2.72;;;;;;;;;;5035660;28;20197;-67
2024/01/27 02:11:02;;;;;;;11.17;3.30;;;;;;;;;;5035834;28;20285;-67
2024/01/27 02:13:29;;;;;;;10.23;2.72;;;;;;;;;;5035821;28;20941;-67
2024/01/27 02:15:56;;;;;;;12.18;3.53;;;;;;;;;;5035668;28;20285;-67
2024/01/27 02:18:23;;;;;;;12.15;3.38;;;;;;;;;;5035547;28;20277;-67
2024/01/27 02:20:50;;;;;;;13.60;2.40;;;;;;;;;;5035394;28;20282;-67
2024/01/27 02:23:17;;;;;;;10.45;3.08;;;;;;;;;;5035576;28;20452;-67
2024/01/27 02:25:45;;;;;;;12.07;2.88;;;;;;;;;;5035464;28;20317;-67
2024/01/27 02:28:12;;;;;;;8.25;2.90;;;;;;;;;;5035446;28;20194;-67
2024/01/27 02:30:39;;;;;;;11.60;3.05;;;;;;;;;;5035369;28;20194;-67
2024/01/27 02:33:06;;;;;;;13.18;2.70;;;;;;;;;;5035607;28;20222;-67
2024/01/27 02:35:33;;;;;;;25.10;5.38;;;;;;;;;;5035191;28;20285;-67
2024/01/27 02:38:00;;;;;;;6.40;2.35;;;;;;;;;;5035366;28;20281;-67
2024/01/27 02:40:27;;;;;;;10.77;3.23;;;;;;;;;;5035249;28;20279;-67
2024/01/27 02:42:55;;;;;;;13.43;3.50;;;;;;;;;;5035137;28;21019;-67
2024/01/27 02:45:22;;;;;;;12.85;3.30;;;;;;;;;;5035052;28;20285;-67
2024/01/27 02:47:49;;;;;;;9.68;2.58;;;;;;;;;;5034998;28;20277;-67
2024/01/27 02:50:16;;;;;;;15.73;2.95;;;;;;;;;;5034892;28;20197;-67
2024/01/27 02:52:43;;;;;;;20.33;4.70;;;;;;;;;;5035053;28;20237;-67
2024/01/27 02:55:10;;;;;;;13.32;3.03;;;;;;;;;;5034971;28;20281;-67
2024/01/27 02:57:37;;;;;;;22.63;4.40;;;;;;;;;;5034837;28;20245;-67
2024/01/27 03:00:06;;;;;;;21.15;3.45;;;;;;;;;;5034849;28;20895;-67
2024/01/27 03:02:33;;;;;;;11.57;2.80;;;;;;;;;;5034674;28;20278;-67
2024/01/27 03:05:00;;;;;;;13.80;2.50;;;;;;;;;;5034879;28;20200;-67
2024/01/27 03:07:27;;;;;;;16.65;2.92;;;;;;;;;;5034708;28;20551;-67
2024/01/27 03:09:54;;;;;;;13.70;2.87;;;;;;;;;;5034711;28;20186;-67
2024/01/27 03:12:22;;;;;;;13.52;3.38;;;;;;;;;;5034623;28;20540;-67
2024/01/27 03:14:50;;;;;;;9.73;2.93;;;;;;;;;;5033896;28;20194;-67
2024/01/27 03:17:19;;;;;;;13.32;3.97;;;;;;;;;;5034770;28;20449;-67
2024/01/27 03:19:46;;;;;;;11.32;2.80;;;;;;;;;;5034330;28;20205;-67
2024/01/27 03:22:13;;;;;;;21.37;3.37;;;;;;;;;;5034630;28;20283;-67
2024/01/27 03:24:40;;;;;;;12.85;3.47;;;;;;;;;;5034382;28;20456;-67
2024/01/27 03:27:06;;;;;;;17.70;2.80;;;;;;;;;;5034279;28;20246;-67
2024/01/27 03:29:33;;;;;;;14.27;2.65;;;;;;;;;;5034187;28;20281;-67
2024/01/27 03:32:00;;;;;;;7.90;2.10;;;;;;;;;;5034335;28;20617;-67
2024/01/27 03:34:29;;;;;;;11.25;2.75;;;;;;;;;;5034113;28;20219;-67
2024/01/27 03:36:56;;;;;;;7.03;1.70;;;;;;;;;;5034217;28;20245;-67
2024/01/27 03:39:22;;;;;;;9.85;3.97;;;;;;;;;;5034219;28;20191;-67
2024/01/27 03:41:49;;;;;;;13.43;2.80;;;;;;;;;;5033958;28;20744;-67
2024/01/27 03:44:16;;;;;;;15.85;3.85;;;;;;;;;;5033856;28;20218;-67
2024/01/27 03:46:43;;;;;;;23.70;2.70;;;;;;;;;;5034253;28;20313;-67
2024/01/27 03:49:10;;;;;;;7.00;2.30;;;;;;;;;;5033944;28;20476;-67
2024/01/27 03:51:38;;;;;;;17.05;4.93;;;;;;;;;;5034082;28;20277;-67
2024/01/27 03:54:06;;;;;;;10.80;2.42;;;;;;;;;;5033892;28;20191;-67
2024/01/27 03:56:33;;;;;;;14.35;2.75;;;;;;;;;;5033859;28;20202;-67
2024/01/27 03:59:00;;;;;;;15.60;2.90;;;;;;;;;;5033922;28;20285;-67
2024/01/27 04:01:27;;;;;;;9.45;2.25;;;;;;;;;;5033923;28;20445;-67
2024/01/27 04:03:54;;;;;;;17.75;2.97;;;;;;;;;;5033726;28;20277;-67
2024/01/27 04:06:21;;;;;;;8.10;2.22;;;;;;;;;;5033534;28;20297;-67
2024/01/27 04:08:49;;;;;;;16.15;2.80;;;;;;;;;;5033581;28;20273;-67
2024/01/27 04:11:22;;;;;;;8.93;2.67;;;;;;;;;;5033598;28;20717;-67
2024/01/27 04:13:50;;;;;;;9.10;3.55;;;;;;;;;;5033556;28;20285;-67
2024/01/27 04:16:17;;;;;;;13.30;2.85;;;;;;;;;;5033567;28;20220;-67
2024/01/27 04:18:44;;;;;;;13.45;2.95;;;;;;;;;;5033515;28;20222;-67
2024/01/27 04:21:11;;;;;;;9.85;2.47;;;;;;;;;;5033327;28;20297;-67
2024/01/27 04:23:38;;;;;;;11.10;3.00;;;;;;;;;;5033217;28;20198;-67
2024/01/27 04:26:07;;;;;;;12.88;4.00;;;;;;;;;;5032461;28;20238;-67
2024/01/27 04:28:34;;;;;;;12.38;2.67;;;;;;;;;;5033300;28;20292;-67
2024/01/27 04:31:01;;;;;;;18.25;2.92;;;;;;;;;;5033243;28;20193;-67
2024/01/27 04:33:28;;;;;;;12.70;2.70;;;;;;;;;;5033238;28;20186;-67
2024/01/27 04:35:55;;;;;;;12.55;3.75;;;;;;;;;;5033112;28;20277;-67
2024/01/27 04:38:22;;;;;;;10.30;2.83;;;;;;;;;;5032994;28;20646;-67
2024/01/27 04:40:49;;;;;;;12.23;2.72;;;;;;;;;;5033245;28;20277;-67
2024/01/27 04:43:17;;;;;;;13.00;3.50;;;;;;;;;;5033144;28;20183;-67
2024/01/27 04:45:44;;;;;;;14.20;2.75;;;;;;;;;;5033149;28;20186;-67
2024/01/27 04:48:11;;;;;;;10.23;3.03;;;;;;;;;;5032873;28;20313;-67
2024/01/27 04:50:38;;;;;;;19.77;3.45;;;;;;;;;;5033121;28;20187;-67
2024/01/27 04:53:05;;;;;;;24.88;3.38;;;;;;;;;;5032783;28;20279;-67
2024/01/27 04:55:33;;;;;;;10.50;2.40;;;;;;;;;;5032769;28;20197;-67
2024/01/27 04:58:00;;;;;;;12.55;3.33;;;;;;;;;;5032978;28;20201;-67
2024/01/27 05:00:28;;;;;;;9.52;2.58;;;;;;;;;;5032843;28;20194;-67
2024/01/27 05:02:57;;;;;;;12.57;3.65;;;;;;;;;;5033002;28;20186;-67
2024/01/27 05:05:24;;;;;;;10.95;2.50;;;;;;;;;;5032728;28;20194;-67
2024/01/27 05:07:51;;;;;;;10.57;2.90;;;;;;;;;;5032856;28;20313;-67
2024/01/27 05:10:18;;;;;;;11.43;3.03;;;;;;;;;;5032735;28;20195;-67
2024/01/27 05:12:45;;;;;;;10.52;2.40;;;;;;;;;;5032793;28;20190;-67
2024/01/27 05:15:12;;;;;;;10.88;3.42;;;;;;;;;;5032811;28;20283;-67
2024/01/27 05:17:40;;;;;;;19.15;3.33;;;;;;;;;;5032670;28;20190;-67
2024/01/27 05:20:08;;;;;;;16.77;4.30;;;;;;;;;;5032597;28;20213;-67
2024/01/27 05:22:35;;;;;;;17.88;2.85;;;;;;;;;;5032787;28;20532;-67
2024/01/27 05:25:03;;;;;;;11.10;2.97;;;;;;;;;;5032567;28;20709;-67
2024/01/27 05:27:29;;;;;;;16.20;3.72;;;;;;;;;;5032640;28;20226;-67
2024/01/27 05:29:56;;;;;;;16.48;2.83;;;;;;;;;;5032618;28;20706;-67
2024/01/27 05:32:23;;;;;;;17.13;3.92;;;;;;;;;;5032703;28;20260;-67
2024/01/27 05:34:52;;;;;;;13.55;3.38;;;;;;;;;;5032712;28;20612;-67
2024/01/27 05:37:19;;;;;;;12.63;2.58;;;;;;;;;;5034195;28;20190;-67
2024/01/27 05:39:46;;;;;;;14.00;2.83;;;;;;;;;;5036411;28;20611;-67
2024/01/27 05:42:13;;;;;;;11.80;2.88;;;;;;;;;;5036157;28;20191;-67
2024/01/27 05:44:40;;;;;;;13.10;3.00;;;;;;;;;;5036274;28;20197;-67
2024/01/27 05:47:07;;;;;;;14.50;2.67;;;;;;;;;;5035963;28;20222;-67
2024/01/27 05:49:34;;;;;;;11.95;2.70;;;;;;;;;;5036297;28;20191;-67
2024/01/27 05:52:03;;;;;;;10.20;2.30;;;;;;;;;;5036045;28;20201;-67
2024/01/27 05:54:30;;;;;;;12.70;2.88;;;;;;;;;;5036118;28;20277;-67
2024/01/27 05:56:56;;;;;;;11.47;2.67;;;;;;;;;;5036020;28;20198;-67
2024/01/27 05:59:23;;;;;;;10.65;2.80;;;;;;;;;;5035868;28;20452;-67
2024/01/27 06:01:51;;;;;;;9.87;4.13;;;;;;;;;;5035776;28;20205;-67
2024/01/27 06:04:18;;;;;;;15.70;3.30;;;;;;;;;;5035957;28;20449;-67
2024/01/27 06:06:44;;;;;;;19.58;3.17;;;;;;;;;;5035869;28;20305;-67
2024/01/27 06:09:13;;;;;;;18.40;3.72;;;;;;;;;;5035738;28;20194;-67
2024/01/27 06:11:40;;;;;;;10.27;2.60;;;;;;;;;;5035824;28;20618;-67
2024/01/27 06:14:07;;;;;;;16.65;4.20;;;;;;;;;;5035589;28;20370;-67
2024/01/27 06:16:35;;;;;;;17.88;2.65;;;;;;;;;;5035751;28;20301;-67
2024/01/27 06:19:02;;;;;;;13.50;3.25;;;;;;;;;;5035657;28;20191;-67
2024/01/27 06:21:29;;;;;;;11.25;2.17;;;;;;;;;;5035797;28;20218;-67
2024/01/27 06:23:56;;;;;;;17.10;2.70;;;;;;;;;;5035539;28;20281;-67
2024/01/27 06:26:24;;;;;;;14.38;2.75;;;;;;;;;;5035295;28;20472;-67
2024/01/27 06:28:51;;;;;;;10.45;3.47;;;;;;;;;;5035275;28;20197;-67
2024/01/27 06:31:18;;;;;;;14.65;2.83;;;;;;;;;;5035538;28;20197;-67
2024/01/27 06:33:45;;;;;;;10.07;3.03;;;;;;;;;;5035369;28;20621;-67
2024/01/27 06:36:12;;;;;;;18.33;3.50;;;;;;;;;;5035346;28;20285;-67
2024/01/27 06:38:39;;;;;;;11.85;2.50;;;;;;;;;;5035289;28;20194;-67
2024/01/27 06:41:06;;;;;;;15.17;2.30;;;;;;;;;;5035144;28;20649;-68
2024/01/27 06:43:34;;;;;;;13.23;2.80;;;;;;;;;;5035297;28;20515;-67
2024/01/27 06:46:01;;;;;;;10.73;2.70;;;;;;;;;;5034978;28;20937;-67
2024/01/27 06:48:28;;;;;;;10.68;3.72;;;;;;;;;;5034254;28;20218;-67
2024/01/27 06:50:55;;;;;;;11.20;3.53;;;;;;;;;;5035069;28;20218;-65
2024/01/27 06:53:22;;;;;;;11.57;2.22;;;;;;;;;;5035201;28;20477;-66
2024/01/27 06:55:49;;;;;;;10.23;3.63;;;;;;;;;;5034859;28;20197;-65
2024/01/27 06:58:16;;;;;;;11.10;3.22;;;;;;;;;;5035060;28;20281;-66
2024/01/27 07:00:44;;;;;;;11.68;2.97;;;;;;;;;;5034910;28;20249;-66
2024/01/27 07:03:11;;;;;;;18.08;3.20;;;;;;;;;;5034865;28;20194;-66
2024/01/27 07:05:40;;;;;;;19.93;3.13;;;;;;;;;;5034931;28;20203;-68
2024/01/27 07:08:07;;;;;;;19.30;3.30;;;;;;;;;;5034643;28;20481;-66
2024/01/27 07:10:35;;;;;;;16.83;4.90;;;;;;;;;;5034799;28;20472;-66
2024/01/27 07:13:02;;;;;;;11.83;2.90;;;;;;;;;;5034598;28;20448;-65
2024/01/27 07:15:29;;;;;;;15.73;3.70;;;;;;;;;;5034832;28;20447;-65
2024/01/27 07:17:57;;;;;;;8.37;3.17;;;;;;;;;;5034541;28;20450;-66
2024/01/27 07:20:25;;;;;;;15.55;3.03;;;;;;;;;;5034469;28;20532;-66
2024/01/27 07:22:52;;;;;;;13.73;3.33;;;;;;;;;;5034342;28;20202;-65
2024/01/27 07:25:18;;;;;;;14.30;3.07;;;;;;;;;;5034131;28;20773;-66
2024/01/27 07:27:46;;;;;;;10.40;2.87;;;;;;;;;;5034392;28;20473;-65
2024/01/27 07:30:13;;;;;;;14.93;2.53;;;;;;;;;;5034236;28;20445;-66
2024/01/27 07:32:40;;;;;;;18.27;3.00;;;;;;;;;;5034133;28;20449;-66
2024/01/27 07:35:09;;;;;;;15.73;3.15;;;;;;;;;;5034225;28;20499;-66
2024/01/27 07:37:36;;;;;;;14.88;3.38;;;;;;;;;;5034043;28;20227;-66
2024/01/27 07:40:03;;;;;;;15.80;3.55;;;;;;;;;;5034228;28;20187;-66
2024/01/27 07:42:30;;;;;;;13.73;2.97;;;;;;;;;;5033925;28;20733;-66
2024/01/27 07:44:57;;;;;;;13.70;2.57;;;;;;;;;;5033975;28;20540;-66
2024/01/27 07:47:24;;;;;;;13.20;3.20;;;;;;;;;;5033796;28;20480;-66
2024/01/27 07:49:51;;;;;;;12.70;3.30;;;;;;;;;;5033640;28;20450;-65
2024/01/27 07:52:19;;;;;;;12.13;2.80;;;;;;;;;;5033981;28;20450;-65
2024/01/27 07:54:46;;;;;;;17.57;3.63;;;;;;;;;;5033926;28;20190;-66
2024/01/27 07:57:13;;;;;;;11.80;2.60;;;;;;;;;;5033804;28;20442;-66
2024/01/27 07:59:40;;;;;;;8.07;2.80;;;;;;;;;;5033670;28;20463;-68
2024/01/27 08:02:07;;;;;;;14.60;2.63;;;;;;;;;;5033645;28;20449;-66
2024/01/27 08:04:34;;;;;;;9.10;2.00;;;;;;;;;;5033745;28;20281;-66
2024/01/27 08:07:06;;;;;;;9.55;2.67;;;;;;;;;;5033642;28;20606;-66
2024/01/27 08:09:34;;;;;;;14.93;2.57;;;;;;;;;;5033637;28;20274;-68
2024/01/27 08:12:01;;;;;;;14.60;2.95;;;;;;;;;;5033487;28;20544;-68
2024/01/27 08:14:29;;;;;;;10.47;2.83;;;;;;;;;;5033375;28;20241;-67
2024/01/27 08:16:56;;;;;;;19.10;3.60;;;;;;;;;;5033307;28;20452;-67
2024/01/27 08:19:23;;;;;;;13.20;2.55;;;;;;;;;;5033192;28;20453;-66
2024/01/27 08:21:50;;;;;;;17.83;2.80;;;;;;;;;;5033458;28;20619;-66
2024/01/27 08:24:17;;;;;;;15.10;3.00;;;;;;;;;;5033145;28;21007;-66
2024/01/27 08:26:48;;;;;;;14.10;3.40;;;;;;;;;;5033082;28;20228;-66
2024/01/27 08:29:16;;;;;;;13.02;2.75;;;;;;;;;;5033365;28;20488;-65
2024/01/27 08:31:43;;;;;;;8.73;3.07;;;;;;;;;;5032796;28;20281;-67
2024/01/27 08:34:12;;;;;;;12.30;3.50;;;;;;;;;;5033223;28;20808;-66
2024/01/27 08:36:39;;;;;;;10.80;2.53;;;;;;;;;;5033163;28;20445;-65
2024/01/27 08:39:08;;;;;;;10.37;2.67;;;;;;;;;;5033168;28;20536;-66
2024/01/27 08:41:36;;;;;;;14.90;2.27;;;;;;;;;;5033000;28;20441;-65
2024/01/27 08:44:04;;;;;;;15.93;3.50;;;;;;;;;;5032781;28;20445;-66
2024/01/27 08:46:31;;;;;;;12.27;2.90;;;;;;;;;;5032904;28;20441;-67
2024/01/27 08:48:58;;;;;;;20.80;4.83;;;;;;;;;;5032979;28;20481;-68
2024/01/27 08:51:25;;;;;;;16.03;2.57;;;;;;;;;;5033008;28;20813;-68
2024/01/27 08:53:52;;;;;;;14.03;3.20;;;;;;;;;;5032849;28;20813;-66
2024/01/27 08:56:19;;;;;;;9.93;3.47;;;;;;;;;;5032941;28;20445;-66
2024/01/27 08:58:47;;;;;;;17.37;5.63;;;;;;;;;;5032719;28;20963;-66
2024/01/27 09:01:17;;;;;;;16.17;4.30;;;;;;;;;;5033210;28;20540;-66
2024/01/27 09:03:44;;;;;;;13.33;3.27;;;;;;;;;;5032871;28;20540;-66
2024/01/27 09:06:11;;;;;;;12.67;3.37;;;;;;;;;;5032608;28;21020;-66
2024/01/27 09:08:38;;;;;;;10.63;3.40;;;;;;;;;;5032667;28;20568;-66
2024/01/27 09:11:05;;;;;;;11.73;3.17;;;;;;;;;;5032560;28;20495;-66
2024/01/27 09:13:32;;;;;;;8.27;3.47;;;;;;;;;;5036622;28;20455;-66
2024/01/27 09:15:59;;;;;;;15.03;3.70;;;;;;;;;;5036848;28;20525;-66
2024/01/27 09:18:27;;;;;;;13.13;2.63;;;;;;;;;;5036997;28;20813;-66
2024/01/27 09:20:54;;;;;;;13.03;3.33;;;;;;;;;;5036658;28;20445;-65
2024/01/27 09:23:21;;;;;;;11.10;3.10;;;;;;;;;;5036512;28;20551;-66
2024/01/27 09:25:48;;;;;;;15.00;3.70;;;;;;;;;;5036385;28;20473;-66
2024/01/27 09:28:15;;;;;;;15.67;3.07;;;;;;;;;;5036473;28;20484;-66
2024/01/27 09:30:43;;;;;;;11.70;3.23;;;;;;;;;;5036384;28;20441;-66
2024/01/27 09:33:10;;;;;;;11.03;3.30;;;;;;;;;;5036482;28;20826;-66
2024/01/27 09:35:38;;;;;;;16.40;4.00;;;;;;;;;;5036344;28;20451;-66
2024/01/27 09:38:05;;;;;;;9.03;2.47;;;;;;;;;;5036293;28;20445;-66
2024/01/27 09:40:32;;;;;;;14.87;2.90;;;;;;;;;;5036082;28;20528;-66
2024/01/27 09:43:00;;;;;;;14.90;3.27;;;;;;;;;;5036338;28;20445;-66
2024/01/27 09:45:27;;;;;;;21.57;3.90;;;;;;;;;;5036252;28;20453;-66
2024/01/27 09:47:56;;;;;;;8.67;2.53;;;;;;;;;;5036089;28;20572;-66
2024/01/27 09:50:23;;;;;;;11.33;3.03;;;;;;;;;;5036098;28;20445;-66
2024/01/27 09:52:51;;;;;;;8.50;2.20;;;;;;;;;;5035959;28;20536;-66
2024/01/27 09:55:18;;;;;;;13.70;3.67;;;;;;;;;;5035993;28;20544;-66
2024/01/27 09:57:46;;;;;;;10.43;3.87;;;;;;;;;;5035840;28;20540;-66
2024/01/27 10:00:13;;;;;;;10.53;2.90;;;;;;;;;;5035979;28;21018;-68
2024/01/27 10:02:41;;;;;;;12.83;2.97;;;;;;;;;;5035981;28;20560;-66
2024/01/27 10:05:10;;;;;;;9.80;3.10;;;;;;;;;;5035932;28;20451;-66
2024/01/27 10:07:36;;;;;;;13.63;3.57;;;;;;;;;;5035580;28;20499;-66
2024/01/27 10:10:05;;;;;;;18.17;4.33;;;;;;;;;;5035880;28;20540;-66
2024/01/27 10:12:33;;;;;;;9.60;3.20;;;;;;;;;;5035551;28;20933;-66
2024/01/27 10:15:00;;;;;;;12.77;2.97;;;;;;;;;;5035583;28;20536;-67
2024/01/27 10:17:32;;;;;;;11.07;2.73;;;;;;;;;;5035739;28;20528;-66
2024/01/27 10:20:03;;;;;;;15.27;2.93;;;;;;;;;;5035836;28;20445;-66
2024/01/27 10:22:30;;;;;;;11.80;3.10;;;;;;;;;;5035574;28;20452;-66
2024/01/27 10:24:57;;;;;;;16.40;4.17;;;;;;;;;;5034225;28;20448;-66
2024/01/27 10:27:26;;;;;;;7.20;2.50;;;;;;;;;;5035475;28;20484;-66
2024/01/27 10:29:52;;;;;;;14.20;3.40;;;;;;;;;;5035294;28;20516;-67
2024/01/27 10:32:19;;;;;;;7.80;3.70;;;;;;;;;;5035310;28;20504;-66
2024/01/27 10:34:46;;;;;;;8.57;3.13;;;;;;;;;;5035245;28;20536;-68
2024/01/27 10:37:13;;;;;;;16.53;2.63;;;;;;;;;;5035439;28;20488;-68
2024/01/27 10:39:40;;;;;;;9.70;2.07;;;;;;;;;;5035305;28;20495;-66
2024/01/27 10:42:09;;;;;;;9.87;2.97;;;;;;;;;;5035268;28;20627;-66
2024/01/27 10:44:39;;;;;;;14.33;2.40;;;;;;;;;;5035056;28;20809;-66
2024/01/27 10:47:06;;;;;;;6.57;2.60;;;;;;;;;;5034943;28;20511;-66
2024/01/27 10:49:35;;;;;;;18.13;2.90;;;;;;;;;;5034983;28;20484;-66
2024/01/27 10:52:05;;;;;;;12.87;3.67;;;;;;;;;;5035120;28;20544;-66
2024/01/27 10:54:32;;;;;;;7.27;2.07;;;;;;;;;;5035098;28;21005;-65
2024/01/27 10:56:59;;;;;;;9.27;2.30;;;;;;;;;;5034999;28;21057;-65
2024/01/27 10:59:28;;;;;;;14.07;2.70;;;;;;;;;;5034696;28;20445;-66
2024/01/27 11:01:57;;;;;;;14.60;3.07;;;;;;;;;;5034941;28;20900;-65
2024/01/27 11:04:24;;;;;;;8.80;2.53;;;;;;;;;;5034729;28;20453;-66
2024/01/27 11:06:52;;;;;;;10.87;3.53;;;;;;;;;;5034762;28;20548;-65
2024/01/27 11:09:19;;;;;;;12.23;3.17;;;;;;;;;;5034507;28;20496;-66
2024/01/27 11:11:47;;;;;;;12.60;3.53;;;;;;;;;;5034555;28;20475;-66
2024/01/27 11:14:14;;;;;;;13.60;4.03;;;;;;;;;;5034384;28;20878;-66
2024/01/27 11:16:46;;;;;;;23.13;3.60;;;;;;;;;;5034698;28;20540;-66
2024/01/27 11:19:14;;;;;;;17.40;6.97;;;;;;;;;;5034389;28;20457;-66
2024/01/27 11:21:42;;;;;;;14.50;3.60;;;;;;;;;;5034386;28;20472;-66
2024/01/27 11:24:15;;;;;;;13.97;4.50;;;;;;;;;;5034364;28;20448;-65
2024/01/27 11:26:42;;;;;;;13.73;3.30;;;;;;;;;;5034135;28;20841;-66
2024/01/27 11:29:18;;;;;;;12.10;2.97;;;;;;;;;;5034317;28;20488;-65
2024/01/27 11:31:45;;;;;;;7.40;3.30;;;;;;;;;;5034340;28;20539;-66
2024/01/27 11:34:16;;;;;;;11.90;2.90;;;;;;;;;;5034041;28;20884;-66
2024/01/27 11:36:44;;;;;;;10.60;3.07;;;;;;;;;;5034052;28;20453;-66
2024/01/27 11:39:24;;;;;;;8.60;2.90;;;;;;;;;;5033987;28;20445;-66
2024/01/27 11:41:51;;;;;;;15.40;3.60;;;;;;;;;;5034127;28;20448;-65
2024/01/27 11:44:18;;;;;;;10.20;3.03;;;;;;;;;;5033915;28;20540;-66
2024/01/27 11:46:46;;;;;;;8.77;3.03;;;;;;;;;;5033692;28;20445;-66
2024/01/27 11:49:16;;;;;;;11.90;2.97;;;;;;;;;;5033478;28;20492;-66
2024/01/27 11:51:44;;;;;;;14.67;3.63;;;;;;;;;;5033527;28;20477;-65
2024/01/27 11:54:11;;;;;;;12.07;2.90;;;;;;;;;;5033390;28;20956;-66
2024/01/27 11:56:38;;;;;;;14.00;3.27;;;;;;;;;;5033526;28;20477;-66
2024/01/27 11:59:05;;;;;;;7.97;2.97;;;;;;;;;;5033622;28;20951;-66
2024/01/27 12:01:32;;;;;;;11.13;3.53;;;;;;;;;;5033754;28;20833;-66
2024/01/27 12:03:59;;;;;;;11.20;4.23;;;;;;;;;;5033420;28;20856;-66
2024/01/27 12:06:26;;;;;;;8.00;3.73;;;;;;;;;;5033617;28;20477;-66
2024/01/27 12:08:57;;;;;;;15.60;4.03;;;;;;;;;;5033288;28;21041;-66
2024/01/27 12:11:24;;;;;;;6.83;3.13;;;;;;;;;;5033559;28;20484;-66
2024/01/27 12:13:51;;;;;;;12.73;3.50;;;;;;;;;;5033465;28;20481;-66
2024/01/27 12:16:18;;;;;;;10.13;3.70;;;;;;;;;;5033307;28;20451;-66
2024/01/27 12:18:45;;;;;;;17.67;3.37;;;;;;;;;;5033257;28;20485;-66
2024/01/27 12:21:12;;;;;;;16.27;4.07;;;;;;;;;;5033371;28;20539;-66
2024/01/27 12:23:49;;;;;;;13.23;3.70;;;;;;;;;;5033226;28;20817;-66
2024/01/27 12:26:17;;;;;;;13.13;3.83;;;;;;;;;;5033536;28;20791;-65
2024/01/27 12:28:47;;;;;;;12.23;4.03;;;;;;;;;;5033068;28;20563;-66
2024/01/27 12:31:15;;;;;;;13.77;4.10;;;;;;;;;;5033312;28;20447;-66
2024/01/27 12:33:42;;;;;;;16.77;4.03;;;;;;;;;;5033268;28;20456;-66
2024/01/27 12:36:10;;;;;;;21.23;3.93;;;;;;;;;;5033255;28;20452;-66
2024/01/27 12:38:37;;;;;;;13.40;3.53;;;;;;;;;;5033149;28;20517;-66
2024/01/27 12:41:04;;;;;;;13.13;3.20;;;;;;;;;;5033243;28;20929;-66
2024/01/27 12:43:32;;;;;;;8.00;3.43;;;;;;;;;;5033009;28;20536;-66
2024/01/27 12:45:59;;;;;;;12.17;3.77;;;;;;;;;;5032911;28;20449;-66
2024/01/27 12:48:26;;;;;;;14.27;3.90;;;;;;;;;;5032700;28;20528;-66
2024/01/27 12:50:53;;;;;;;12.40;5.00;;;;;;;;;;5033007;28;20532;-66
2024/01/27 12:53:20;;;;;;;13.57;3.90;;;;;;;;;;5032952;28;20532;-66
2024/01/27 12:55:47;;;;;;;13.68;4.03;;;;;;;;;;5032794;28;20446;-66
2024/01/27 12:58:14;;;;;;;10.70;2.70;;;;;;;;;;5032792;28;20277;-66
2024/01/27 13:00:42;;;;;;;7.90;3.17;;;;;;;;;;5033057;28;20963;-66
2024/01/27 13:03:09;;;;;;;15.43;3.07;;;;;;;;;;5032937;28;20446;-66
2024/01/27 13:05:38;;;;;;;5.90;3.17;;;;;;;;;;5032725;28;20452;-66
2024/01/27 13:08:05;;;;;;;9.20;3.57;;;;;;;;;;5032665;28;20441;-66
2024/01/27 13:10:32;;;;;;;12.57;3.00;;;;;;;;;;5032553;28;20484;-66
2024/01/27 13:12:59;;;;;;;12.03;3.33;;;;;;;;;;5032553;28;20445;-66
2024/01/27 13:15:26;;;;;;;10.00;3.67;;;;;;;;;;5032792;28;20445;-66
2024/01/27 13:17:54;;;;;;;11.30;3.67;;;;;;;;;;5032740;28;20445;-66
2024/01/27 13:20:21;;;;;;;7.23;2.80;;;;;;;;;;5032851;28;20445;-66
2024/01/27 13:22:48;;;;;;;12.50;4.20;;;;;;;;;;5032550;28;20487;-66
2024/01/27 13:25:15;;;;;;;10.40;3.57;;;;;;;;;;5032127;28;20540;-66
2024/01/27 13:27:42;;;;;;;8.73;3.83;;;;;;;;;;5032701;28;20524;-66
2024/01/27 13:30:10;;;;;;;11.83;4.10;;;;;;;;;;5032566;28;20571;-66
2024/01/27 13:32:37;;;;;;;11.53;4.53;;;;;;;;;;5032594;28;20778;-66
2024/01/27 13:35:07;;;;;;;15.10;3.73;;;;;;;;;;5032400;28;20445;-66
2024/01/27 13:37:34;;;;;;;8.73;4.23;;;;;;;;;;5032414;28;20449;-66
2024/01/27 13:40:02;;;;;;;8.37;3.70;;;;;;;;;;5032263;28;20529;-66
2024/01/27 13:42:29;;;;;;;13.23;3.80;;;;;;;;;;5032490;28;20448;-66
2024/01/27 13:44:55;;;;;;;11.40;3.73;;;;;;;;;;5032490;28;20539;-66
2024/01/27 13:47:23;;;;;;;14.30;4.27;;;;;;;;;;5032424;28;20890;-66
2024/01/27 13:49:50;;;;;;;9.80;3.50;;;;;;;;;;5032262;28;20923;-66
2024/01/27 13:52:18;;;;;;;9.07;3.63;;;;;;;;;;5032209;28;20452;-66
2024/01/27 13:54:45;;;;;;;10.47;3.67;;;;;;;;;;5032184;28;20437;-66
2024/01/27 13:57:12;;;;;;;11.00;4.10;;;;;;;;;;5032605;28;20441;-66
2024/01/27 13:59:39;;;;;;;20.47;4.40;;;;;;;;;;5035989;28;20449;-66
2024/01/27 14:02:06;;;;;;;6.50;3.30;;;;;;;;;;5035882;28;20451;-66
2024/01/27 14:04:33;;;;;;;11.80;3.97;;;;;;;;;;5035861;28;20520;-66
2024/01/27 14:07:02;;;;;;;13.70;4.00;;;;;;;;;;5035656;28;20873;-66
2024/01/27 14:09:30;;;;;;;12.13;3.90;;;;;;;;;;5036020;28;20473;-66
2024/01/27 14:11:57;;;;;;;14.07;4.63;;;;;;;;;;5035737;28;20965;-66
2024/01/27 14:14:24;;;;;;;13.53;4.10;;;;;;;;;;5035609;28;20536;-66
2024/01/27 14:16:51;;;;;;;13.80;4.53;;;;;;;;;;5035635;28;20452;-66
2024/01/27 14:19:18;;;;;;;6.80;3.80;;;;;;;;;;5035389;28;20540;-66
2024/01/27 14:21:45;;;;;;;7.03;3.80;;;;;;;;;;5035387;28;20449;-65
2024/01/27 14:24:12;;;;;;;8.10;3.80;;;;;;;;;;5035521;28;20505;-65
2024/01/27 14:26:40;;;;;;;17.57;4.30;;;;;;;;;;5035488;28;20568;-65
2024/01/27 14:29:07;;;;;;;13.37;4.10;;;;;;;;;;5035424;28;20959;-66
2024/01/27 14:31:34;;;;;;;15.07;3.47;;;;;;;;;;5035317;28;20484;-66
2024/01/27 14:34:01;;;;;;;10.10;3.20;;;;;;;;;;5035166;28;20456;-66